首页
METAR-TAF:

METAR-TAF

机场 :

Greenbrier Valley Airport

Lewisburg, 西維吉尼亞州, 美国

纬度: 37-52N, 经度: 080-24W, 海拔: 702米

当前天气观测

该预报发布于28分钟前的08:35 UTC
风速3节,风向东转东北
温度 1°C
湿度 93%
气压 1018 hPa
能見度: 16.1公里
阴天层高于2800英尺

METAR: KLWB 190835Z AUTO 07003KT 10SM OVC028 01/00 A3005 RMK AO2 T00071005

时间: 04:03 (09:03 UTC)

预报

该预报发布于3小时和43分钟前的05:20 UTC
预报有效从19日的 06点(UTC)到 20日的 06点(UTC)
风速节,风向
能見度: 10公里
阴天层高于1500英尺
从 19日的 1100点(UTC)
风速3节,风向多变
能見度: 9.7公里
阴天层高于900英尺
轻雾
从 19日的 1500点(UTC)
风速5节,风向
能見度: 9.7公里
阴天层高于1100英尺
小雨, 轻雾
从 19日的 1900点(UTC)
风速5节,风向
能見度: 6.4公里
阴天层高于600英尺
阵雨, 轻雾
从 20日的 0200点(UTC)
风速4节,风向东转东南
能見度: 8.0公里
阴天层高于900英尺
小阵雨, 轻雾

TAF: KLWB 190520Z 1906/2006 00000KT P6SM OVC015 FM191100 VRB03KT 6SM BR OVC009 FM191500 09005KT 6SM -RA BR OVC011 FM191900 09005KT 4SM SHRA BR OVC006 WS020/16030KT FM200200 11004KT 5SM -SHRA BR OVC009

超过4000个机场的气象观测和天气预报(METAR&TAF报告)。

可查询的气象台以黄色和红色小点在地图上表示。

将鼠标移到小点上方,可查看气象台名称。

然后点击查看天气观测和预报。

如需切换地图:点击带黑十字的绿色按钮放大地图;点击带横线的绿色按钮缩小地图;或者点击绿色箭头查看邻近地区的地图。


METAR-TAF: